Time;durP1;ratioP1;P1;durP2;ratioP2;P2;SDS_P1;SDS_P2;PMS_P1;PMS_P2;Temp;Humidity;BMP_temperature;BMP_pressure;BME280_temperature;BME280_humidity;BME280_pressure;Samples;Min_cycle;Max_cycle;Signal;HPM_P1;HPM_P2
2022/04/09 00:01:13;;;;;;;21.60;14.20;;;0.50;99.90;;;;;;5011882;28;20033;-76
2022/04/09 00:03:39;;;;;;;16.80;14.63;;;0.50;99.90;;;;;;5010583;28;20029;-76
2022/04/09 00:06:05;;;;;;;19.17;15.73;;;0.50;99.90;;;;;;5011982;28;20049;-77
2022/04/09 00:08:31;;;;;;;23.00;18.20;;;0.60;99.90;;;;;;5005889;28;20034;-77
2022/04/09 00:10:58;;;;;;;20.88;17.65;;;0.60;99.90;;;;;;5008282;28;20049;-77
2022/04/09 00:13:24;;;;;;;27.88;18.85;;;0.60;99.90;;;;;;5007286;28;20502;-76
2022/04/09 00:15:50;;;;;;;28.92;17.08;;;0.60;99.90;;;;;;5011625;28;20036;-76
2022/04/09 00:18:16;;;;;;;21.52;17.17;;;0.60;99.90;;;;;;5011942;28;20026;-77
2022/04/09 00:20:43;;;;;;;21.02;16.27;;;0.60;99.90;;;;;;5011571;28;20373;-79
2022/04/09 00:23:13;;;;;;;22.13;16.55;;;0.60;99.90;;;;;;4998810;28;20754;-77
2022/04/09 00:25:39;;;;;;;20.40;16.75;;;0.60;99.90;;;;;;5010518;28;20038;-77
2022/04/09 00:28:05;;;;;;;21.85;15.88;;;0.60;99.90;;;;;;5021940;28;20064;-77
2022/04/09 00:30:32;;;;;;;23.30;15.50;;;0.60;99.90;;;;;;5031706;28;20037;-77
2022/04/09 00:32:58;;;;;;;25.55;17.45;;;0.70;99.90;;;;;;5012264;28;20042;-77
2022/04/09 00:35:24;;;;;;;23.17;17.27;;;0.70;99.90;;;;;;5031068;28;20466;-77
2022/04/09 00:37:51;;;;;;;21.75;15.95;;;0.70;99.90;;;;;;5030683;28;20040;-76
2022/04/09 00:40:23;;;;;;;21.02;17.23;;;0.70;99.90;;;;;;5031726;28;20044;-76
2022/04/09 00:42:49;;;;;;;20.17;14.27;;;0.80;99.90;;;;;;5026494;28;20029;-77
2022/04/09 00:45:15;;;;;;;20.30;13.88;;;0.80;99.90;;;;;;5029693;28;20037;-76
2022/04/09 00:47:42;;;;;;;20.15;13.63;;;0.80;99.90;;;;;;5029252;28;20045;-76
2022/04/09 00:50:10;;;;;;;17.48;15.32;;;0.90;99.90;;;;;;5035534;28;20025;-76
2022/04/09 00:52:50;;;;;;;18.30;15.00;;;0.90;99.90;;;;;;5035215;28;20064;-77
2022/04/09 00:58:14;;;;;;;19.05;14.98;;;1.00;99.90;;;;;;5033457;28;20030;-77
2022/04/09 01:00:41;;;;;;;20.58;16.17;;;1.00;99.90;;;;;;5034859;28;20045;-77
2022/04/09 01:03:11;;;;;;;17.02;13.80;;;1.00;99.90;;;;;;5028675;28;20400;-77
2022/04/09 01:05:38;;;;;;;22.38;16.88;;;1.00;99.90;;;;;;5034213;28;20397;-77
2022/04/09 01:08:05;;;;;;;21.02;14.93;;;1.00;99.90;;;;;;5028747;28;20041;-77
2022/04/09 01:10:31;;;;;;;20.25;17.08;;;1.10;99.90;;;;;;5016729;28;20048;-77
2022/04/09 01:12:59;;;;;;;24.75;17.33;;;1.00;99.90;;;;;;5015113;28;20041;-78
2022/04/09 01:15:26;;;;;;;24.83;18.17;;;1.00;99.90;;;;;;5015870;28;20052;-78
2022/04/09 01:17:52;;;;;;;42.03;18.02;;;1.00;99.90;;;;;;5026790;28;20402;-78
2022/04/09 01:20:26;;;;;;;20.13;17.33;;;1.00;99.90;;;;;;5013332;28;20117;-78
2022/04/09 01:22:53;;;;;;;23.08;18.10;;;1.00;99.90;;;;;;5014826;28;20041;-79
2022/04/09 01:25:21;;;;;;;23.55;18.65;;;1.00;99.90;;;;;;5038869;28;20393;-78
2022/04/09 01:27:50;;;;;;;20.05;17.95;;;1.10;99.90;;;;;;5012988;28;20372;-79
2022/04/09 01:30:18;;;;;;;25.50;19.65;;;1.10;99.90;;;;;;5034262;28;20050;-79
2022/04/09 01:32:45;;;;;;;24.15;20.00;;;1.10;99.90;;;;;;5012814;28;20252;-79
2022/04/09 01:35:11;;;;;;;29.10;22.40;;;1.10;99.90;;;;;;5012104;28;20484;-79
2022/04/09 01:37:38;;;;;;;32.78;22.85;;;1.20;99.90;;;;;;5034107;28;20022;-79
2022/04/09 01:40:05;;;;;;;25.05;22.17;;;1.30;99.90;;;;;;5015824;28;20399;-79
2022/04/09 01:42:32;;;;;;;36.33;24.02;;;1.40;99.90;;;;;;5016184;28;20045;-79
2022/04/09 01:44:58;;;;;;;37.08;25.02;;;1.50;99.90;;;;;;5008740;28;20062;-79
2022/04/09 01:47:25;;;;;;;29.95;22.83;;;1.40;99.90;;;;;;5015866;28;20049;-79
2022/04/09 01:49:51;;;;;;;32.70;22.00;;;1.30;99.90;;;;;;5014513;28;20041;-79
2022/04/09 01:52:17;;;;;;;32.30;23.08;;;1.20;99.90;;;;;;5034011;28;20374;-78
2022/04/09 01:54:44;;;;;;;39.22;25.77;;;1.30;99.90;;;;;;5030486;28;20125;-79
2022/04/09 01:57:10;;;;;;;33.47;25.67;;;1.40;99.90;;;;;;5015120;28;20064;-79
2022/04/09 01:59:36;;;;;;;30.00;24.42;;;1.50;99.90;;;;;;5030553;28;20060;-79
2022/04/09 02:02:04;;;;;;;31.25;27.95;;;1.40;99.90;;;;;;5013986;28;20050;-78
2022/04/09 02:04:30;;;;;;;33.40;27.65;;;1.50;99.90;;;;;;5029631;28;20033;-79
2022/04/09 02:06:58;;;;;;;38.47;29.05;;;1.50;99.90;;;;;;5010340;28;20045;-79
2022/04/09 02:09:25;;;;;;;49.60;32.17;;;1.50;99.90;;;;;;5014826;28;20050;-79
2022/04/09 02:11:52;;;;;;;45.47;31.70;;;1.50;99.90;;;;;;5015067;28;20037;-79
2022/04/09 02:14:18;;;;;;;37.72;31.60;;;1.40;99.90;;;;;;5027950;28;20052;-78
2022/04/09 02:16:45;;;;;;;41.08;31.60;;;1.40;99.90;;;;;;5031253;28;20029;-78
2022/04/09 02:19:11;;;;;;;39.65;33.17;;;1.50;99.90;;;;;;5014927;28;20049;-79
2022/04/09 02:21:38;;;;;;;45.72;37.38;;;1.50;99.90;;;;;;5040959;28;20026;-78
2022/04/09 02:24:04;;;;;;;42.55;34.53;;;1.70;99.90;;;;;;5032155;28;20029;-78
2022/04/09 02:26:31;;;;;;;47.72;36.22;;;1.60;99.90;;;;;;5015260;28;20044;-79
2022/04/09 02:28:57;;;;;;;50.97;37.17;;;1.50;99.90;;;;;;5012868;28;20041;-78
2022/04/09 02:31:24;;;;;;;42.88;36.50;;;1.60;99.90;;;;;;5015211;28;20049;-79
2022/04/09 02:33:53;;;;;;;50.35;37.60;;;1.60;99.90;;;;;;5012878;28;20045;-79
2022/04/09 02:36:22;;;;;;;58.67;40.22;;;1.60;99.90;;;;;;5014728;28;20045;-79
2022/04/09 02:38:49;;;;;;;49.42;38.35;;;1.60;99.90;;;;;;5014590;28;20398;-79
2022/04/09 02:41:16;;;;;;;53.17;36.63;;;1.50;99.90;;;;;;5014512;28;20045;-79
2022/04/09 02:43:45;;;;;;;58.90;38.90;;;1.40;99.90;;;;;;5013455;28;20048;-79
2022/04/09 02:46:12;;;;;;;46.08;37.90;;;1.40;99.90;;;;;;5014622;28;20521;-78
2022/04/09 02:48:41;;;;;;;51.38;40.90;;;1.40;99.90;;;;;;5014071;28;20510;-78
2022/04/09 02:51:08;;;;;;;52.80;40.17;;;1.60;99.90;;;;;;5025079;28;20049;-78
2022/04/09 02:53:35;;;;;;;49.88;38.28;;;1.60;99.90;;;;;;5030474;28;20049;-78
2022/04/09 02:56:01;;;;;;;49.15;38.33;;;1.50;99.90;;;;;;5014247;28;20486;-79
2022/04/09 02:58:30;;;;;;;55.63;39.00;;;1.50;99.90;;;;;;5014878;28;20041;-78
2022/04/09 03:00:56;;;;;;;52.97;38.08;;;1.50;99.90;;;;;;5014549;28;20042;-78
2022/04/09 03:03:26;;;;;;;46.03;35.92;;;1.40;99.90;;;;;;5013109;28;20056;-78
2022/04/09 03:05:52;;;;;;;52.40;38.45;;;1.40;99.90;;;;;;5013750;28;20042;-78
2022/04/09 03:08:18;;;;;;;49.42;38.20;;;1.40;99.90;;;;;;5026515;28;20074;-78
2022/04/09 03:10:45;;;;;;;52.67;39.03;;;1.40;99.90;;;;;;5011514;28;20068;-78
2022/04/09 03:13:11;;;;;;;59.05;37.78;;;1.40;99.90;;;;;;5012917;28;20056;-79
2022/04/09 03:15:37;;;;;;;50.05;38.70;;;1.30;99.90;;;;;;5028288;28;20034;-79
2022/04/09 03:18:04;;;;;;;56.60;40.63;;;1.40;99.90;;;;;;5024400;28;20232;-78
2022/04/09 03:20:33;;;;;;;49.38;40.13;;;1.40;99.90;;;;;;5014279;28;20045;-81
2022/04/09 03:23:00;;;;;;;56.13;40.58;;;1.50;99.90;;;;;;5013444;28;20061;-78
2022/04/09 03:25:42;;;;;;;59.97;39.78;;;1.50;99.90;;;;;;5014180;28;20064;-78
2022/04/09 03:28:09;;;;;;;51.55;41.00;;;1.50;99.90;;;;;;5032055;28;20045;-78
2022/04/09 03:30:38;;;;;;;53.05;38.83;;;1.50;99.90;;;;;;5014076;28;20050;-79
2022/04/09 03:33:06;;;;;;;53.97;39.80;;;1.50;99.90;;;;;;5012235;28;20049;-78
2022/04/09 03:35:35;;;;;;;52.42;39.63;;;1.50;99.90;;;;;;5014261;28;20063;-78
2022/04/09 03:38:02;;;;;;;45.65;38.67;;;1.40;99.90;;;;;;5010846;28;20471;-79
2022/04/09 03:40:40;;;;;;;55.58;37.92;;;1.40;99.90;;;;;;5029680;28;20041;-78
2022/04/09 03:43:07;;;;;;;49.92;40.92;;;1.40;99.90;;;;;;5002850;28;20485;-78
2022/04/09 03:45:34;;;;;;;47.15;40.78;;;1.40;99.90;;;;;;5025711;28;20037;-78
2022/04/09 03:48:03;;;;;;;49.53;39.00;;;1.50;99.90;;;;;;5013462;28;20041;-78
2022/04/09 03:50:32;;;;;;;58.42;38.15;;;1.50;99.90;;;;;;5015300;28;20046;-78
2022/04/09 03:53:00;;;;;;;51.28;38.30;;;1.50;99.90;;;;;;5012544;28;20475;-78
2022/04/09 03:55:28;;;;;;;44.10;35.85;;;1.50;99.90;;;;;;5016465;28;20390;-78
2022/04/09 03:57:59;;;;;;;40.42;35.92;;;1.50;99.90;;;;;;5018932;28;20048;-78
2022/04/09 04:00:25;;;;;;;47.13;36.17;;;1.60;99.90;;;;;;5015722;28;20050;-78
2022/04/09 04:02:57;;;;;;;46.38;38.25;;;1.60;99.90;;;;;;5011871;28;20049;-79
2022/04/09 04:05:23;;;;;;;48.20;38.08;;;1.60;99.90;;;;;;4998009;28;20046;-79
2022/04/09 04:07:49;;;;;;;56.75;38.78;;;1.60;99.90;;;;;;5013395;28;20052;-80
2022/04/09 04:10:18;;;;;;;58.35;38.78;;;1.70;99.90;;;;;;5014215;28;20041;-80
2022/04/09 04:12:49;;;;;;;48.60;38.13;;;1.70;99.90;;;;;;5011014;28;20518;-80
2022/04/09 04:15:18;;;;;;;50.13;41.03;;;1.80;99.90;;;;;;5007721;28;20300;-79
2022/04/09 04:17:49;;;;;;;51.10;38.40;;;1.80;99.90;;;;;;5023723;28;20049;-80
2022/04/09 04:20:20;;;;;;;41.78;36.20;;;1.80;99.90;;;;;;5031527;28;20068;-79
2022/04/09 04:22:51;;;;;;;41.50;36.00;;;1.90;99.90;;;;;;5015940;28;20041;-80
2022/04/09 04:25:18;;;;;;;40.65;33.58;;;1.80;99.90;;;;;;4995163;28;20052;-79
2022/04/09 04:27:49;;;;;;;37.33;33.28;;;1.80;99.90;;;;;;5016609;28;20049;-79
2022/04/09 04:30:17;;;;;;;36.30;32.15;;;1.80;99.90;;;;;;5025488;28;20042;-79
2022/04/09 04:32:45;;;;;;;39.05;32.80;;;1.70;99.90;;;;;;4999190;28;20383;-79
2022/04/09 04:35:12;;;;;;;41.63;37.15;;;1.70;99.90;;;;;;5011054;28;20372;-79
2022/04/09 04:37:41;;;;;;;38.10;33.95;;;1.60;99.90;;;;;;5010763;28;20413;-79
2022/04/09 04:40:08;;;;;;;39.05;32.60;;;1.50;99.90;;;;;;5008126;28;20478;-79
2022/04/09 04:42:35;;;;;;;41.92;31.63;;;1.50;99.90;;;;;;5034723;28;20033;-80
2022/04/09 04:45:06;;;;;;;40.25;33.50;;;1.60;99.90;;;;;;5015959;28;20049;-79
2022/04/09 04:47:41;;;;;;;54.45;41.35;;;1.50;99.90;;;;;;5033577;28;20049;-80
2022/04/09 04:50:07;;;;;;;56.30;37.10;;;1.60;99.90;;;;;;5033120;28;20038;-79
2022/04/09 04:52:35;;;;;;;55.45;43.55;;;1.50;99.90;;;;;;5016012;28;20056;-79
2022/04/09 04:55:03;;;;;;;45.33;37.78;;;1.40;99.90;;;;;;5016304;28;20042;-79
2022/04/09 04:57:38;;;;;;;47.08;37.85;;;1.40;99.90;;;;;;5016908;28;20112;-79
2022/04/09 05:00:05;;;;;;;101.20;87.05;;;1.40;99.90;;;;;;5015716;28;20298;-80
2022/04/09 05:02:36;;;;;;;49.35;37.95;;;1.40;99.90;;;;;;5015683;28;20049;-80
2022/04/09 05:05:03;;;;;;;43.47;38.15;;;1.40;99.90;;;;;;5013538;28;20045;-79
2022/04/09 05:07:56;;;;;;;50.17;44.67;;;1.50;99.90;;;;;;5016979;28;20398;-80
2022/04/09 05:10:27;;;;;;;51.65;42.97;;;1.60;99.90;;;;;;5010488;28;20195;-80
2022/04/09 05:12:58;;;;;;;59.72;53.35;;;1.60;99.90;;;;;;4998409;28;20056;-80
2022/04/09 05:15:25;;;;;;;42.67;35.47;;;1.60;99.90;;;;;;5016423;28;20037;-79
2022/04/09 05:17:52;;;;;;;39.70;34.83;;;1.60;99.90;;;;;;5016252;28;20045;-79
2022/04/09 05:20:20;;;;;;;50.83;37.03;;;1.60;99.90;;;;;;5016162;28;20475;-80
2022/04/09 05:22:49;;;;;;;48.53;36.60;;;1.60;99.90;;;;;;5014191;28;20045;-80
2022/04/09 05:25:20;;;;;;;36.67;32.83;;;1.60;99.90;;;;;;5017367;28;20049;-80
2022/04/09 05:27:49;;;;;;;41.28;33.80;;;1.60;99.90;;;;;;5015815;28;20052;-80
2022/04/09 05:30:35;;;;;;;59.92;36.50;;;1.70;99.90;;;;;;5016243;28;20050;-81
2022/04/09 05:33:03;;;;;;;36.92;32.95;;;2.00;99.90;;;;;;5029776;28;20395;-81
2022/04/09 05:35:29;;;;;;;43.10;33.40;;;2.00;99.90;;;;;;5015878;28;20037;-81
2022/04/09 05:37:57;;;;;;;35.17;29.33;;;2.30;99.90;;;;;;5015814;28;20045;-81
2022/04/09 05:40:28;;;;;;;27.08;24.02;;;2.90;99.90;;;;;;5024562;28;20068;-81
2022/04/09 05:42:59;;;;;;;18.27;16.40;;;3.00;99.90;;;;;;5018829;28;20049;-81
2022/04/09 05:45:25;;;;;;;23.98;18.40;;;3.10;99.90;;;;;;5010372;28;20507;-81
2022/04/09 05:47:51;;;;;;;18.70;16.65;;;2.90;99.90;;;;;;5012384;28;20045;-80
2022/04/09 05:50:26;;;;;;;20.40;18.38;;;2.70;99.90;;;;;;5021049;28;20476;-80
2022/04/09 05:52:54;;;;;;;19.17;17.02;;;2.40;99.90;;;;;;5014390;28;20046;-81
2022/04/09 05:55:21;;;;;;;17.70;15.85;;;2.40;99.90;;;;;;5030338;28;20049;-79
2022/04/09 05:57:47;;;;;;;23.55;17.60;;;2.20;99.90;;;;;;5029542;28;20044;-81
2022/04/09 06:00:16;;;;;;;25.83;17.20;;;2.20;99.90;;;;;;5025138;28;20041;-79
2022/04/09 06:02:49;;;;;;;25.40;16.77;;;2.20;99.90;;;;;;4997791;28;20057;-80
2022/04/09 06:05:27;;;;;;;27.63;19.40;;;2.30;99.90;;;;;;5014335;28;20399;-79
2022/04/09 06:07:55;;;;;;;23.05;19.63;;;2.30;99.90;;;;;;5015299;28;20053;-80
2022/04/09 06:10:21;;;;;;;21.67;17.15;;;2.40;99.90;;;;;;5013120;28;20405;-80
2022/04/09 06:12:48;;;;;;;36.88;19.40;;;2.80;99.90;;;;;;4997953;28;20478;-81
2022/04/09 06:15:22;;;;;;;16.27;14.13;;;4.10;99.90;;;;;;5013561;28;20057;-79
2022/04/09 06:17:51;;;;;;;13.82;12.40;;;4.30;99.90;;;;;;5015378;28;20141;-81
2022/04/09 06:20:18;;;;;;;12.55;11.35;;;4.00;99.90;;;;;;5033690;28;20037;-78
2022/04/09 06:22:45;;;;;;;13.57;12.13;;;3.60;99.90;;;;;;5026941;28;20044;-80
2022/04/09 06:25:14;;;;;;;17.77;13.18;;;3.30;99.90;;;;;;5015342;28;20053;-80
2022/04/09 06:27:41;;;;;;;27.05;12.93;;;3.30;99.90;;;;;;5015274;28;20041;-80
2022/04/09 06:30:10;;;;;;;21.05;12.48;;;3.30;99.90;;;;;;5014786;28;20049;-80
2022/04/09 06:32:39;;;;;;;19.38;12.80;;;3.20;99.90;;;;;;5013373;28;20038;-79
2022/04/09 06:35:08;;;;;;;15.70;13.20;;;3.20;99.90;;;;;;5014269;28;20065;-80
2022/04/09 06:37:38;;;;;;;14.60;13.13;;;3.50;99.90;;;;;;5014042;28;20053;-81
2022/04/09 06:40:07;;;;;;;15.65;12.68;;;3.70;99.90;;;;;;5014282;28;20045;-82
2022/04/09 06:42:34;;;;;;;18.42;12.77;;;3.90;99.90;;;;;;5013918;28;20038;-81
2022/04/09 06:45:18;;;;;;;20.88;12.52;;;4.40;99.90;;;;;;5014115;28;20054;-81
2022/04/09 06:48:14;;;;;;;11.52;10.45;;;4.30;99.90;;;;;;5020076;28;20033;-81
2022/04/09 06:50:50;;;;;;;19.05;11.07;;;4.00;99.90;;;;;;5015177;28;20042;-81
2022/04/09 06:53:16;;;;;;;12.95;11.52;;;4.10;99.90;;;;;;5013529;28;20044;-82
2022/04/09 06:55:42;;;;;;;12.15;11.05;;;4.00;99.90;;;;;;4998315;28;20049;-80
2022/04/09 06:58:09;;;;;;;11.50;10.38;;;4.10;99.90;;;;;;5024087;28;20042;-82
2022/04/09 07:00:37;;;;;;;17.10;11.95;;;4.40;99.90;;;;;;5026121;28;20041;-82
2022/04/09 07:03:04;;;;;;;14.13;10.93;;;4.60;99.90;;;;;;5013306;28;20120;-81
2022/04/09 07:05:31;;;;;;;13.10;10.48;;;4.20;99.90;;;;;;5030195;28;20038;-80
2022/04/09 07:07:57;;;;;;;11.77;10.60;;;4.20;99.90;;;;;;5012168;28;20065;-80
2022/04/09 07:10:23;;;;;;;12.68;11.23;;;4.70;99.90;;;;;;5025943;28;20041;-81
2022/04/09 07:12:49;;;;;;;9.63;8.13;;;6.10;99.90;;;;;;5031031;28;20032;-80
2022/04/09 07:15:15;;;;;;;10.05;8.98;;;6.30;99.90;;;;;;5032365;28;20040;-81
2022/04/09 07:17:42;;;;;;;10.10;8.05;;;5.70;99.90;;;;;;5029128;28;20026;-81
2022/04/09 07:20:09;;;;;;;10.00;8.43;;;5.60;99.90;;;;;;5029247;28;20190;-81
2022/04/09 07:22:38;;;;;;;8.75;7.90;;;7.20;99.90;;;;;;5027619;28;20048;-81
2022/04/09 07:25:06;;;;;;;12.82;6.30;;;7.90;99.90;;;;;;5032002;28;20470;-83
2022/04/09 07:27:45;;;;;;;11.73;5.63;;;8.00;99.90;;;;;;5030325;28;20498;-82
2022/04/09 07:30:18;;;;;;;6.32;5.50;;;7.20;99.90;;;;;;5031719;28;20041;-82
2022/04/09 07:32:46;;;;;;;7.88;5.97;;;5.80;99.90;;;;;;5027803;28;20037;-82
2022/04/09 07:35:13;;;;;;;9.23;6.45;;;5.70;99.90;;;;;;5030357;28;20033;-81
2022/04/09 07:37:44;;;;;;;10.65;6.53;;;6.50;99.90;;;;;;5031965;28;20029;-80
2022/04/09 07:40:13;;;;;;;8.07;6.20;;;6.10;99.90;;;;;;5032088;28;20037;-81
2022/04/09 07:42:41;;;;;;;9.93;6.95;;;6.20;99.90;;;;;;5030547;28;20033;-81
2022/04/09 07:45:08;;;;;;;12.20;6.05;;;7.00;99.90;;;;;;5031161;28;20048;-81
2022/04/09 07:47:35;;;;;;;9.10;6.63;;;6.40;99.90;;;;;;5032653;28;20044;-81
2022/04/09 07:50:03;;;;;;;12.32;7.32;;;7.30;99.90;;;;;;5031746;28;20047;-81
2022/04/09 07:52:29;;;;;;;10.05;6.18;;;6.60;99.90;;;;;;5016057;28;20029;-81
2022/04/09 07:54:59;;;;;;;13.68;7.10;;;6.20;99.90;;;;;;5029260;28;20033;-80
2022/04/09 07:57:26;;;;;;;9.32;6.03;;;6.00;99.90;;;;;;5018756;28;20037;-83
2022/04/09 07:59:55;;;;;;;6.90;5.25;;;6.00;99.90;;;;;;5032421;28;20049;-83
2022/04/09 08:02:22;;;;;;;11.70;5.50;;;6.40;99.90;;;;;;5030275;28;20510;-82
2022/04/09 08:04:48;;;;;;;7.80;5.20;;;7.10;99.90;;;;;;5033781;28;20390;-83
2022/04/09 08:07:15;;;;;;;13.75;5.95;;;7.10;99.90;;;;;;5038317;28;20409;-83
2022/04/09 08:09:43;;;;;;;7.80;5.85;;;7.30;99.90;;;;;;5035816;28;20034;-83
2022/04/09 08:12:15;;;;;;;7.38;4.95;;;7.30;99.90;;;;;;5034918;28;20052;-80
2022/04/09 08:14:42;;;;;;;10.18;5.38;;;8.10;99.90;;;;;;5041154;28;20045;-83
2022/04/09 08:17:09;;;;;;;9.18;5.30;;;8.10;99.90;;;;;;5037320;28;20474;-83
2022/04/09 08:19:35;;;;;;;7.47;5.05;;;8.80;99.90;;;;;;5032997;28;20463;-81
2022/04/09 08:22:03;;;;;;;5.47;3.95;;;8.60;99.90;;;;;;5029849;28;20021;-81
2022/04/09 08:24:30;;;;;;;5.03;4.55;;;8.50;99.90;;;;;;5030369;28;20056;-81
2022/04/09 08:26:56;;;;;;;6.55;4.32;;;8.90;99.90;;;;;;5030879;28;20045;-84
2022/04/09 08:29:24;;;;;;;6.75;4.18;;;8.50;99.90;;;;;;5035731;28;20033;-86
2022/04/09 08:31:51;;;;;;;6.57;4.03;;;8.30;99.90;;;;;;5014771;28;20038;-84
2022/04/09 08:34:19;;;;;;;7.57;4.20;;;8.70;99.90;;;;;;5034296;28;20050;-88
2022/04/09 08:36:46;;;;;;;11.73;6.70;;;8.80;99.90;;;;;;5035797;28;20411;-87
2022/04/09 08:39:12;;;;;;;8.00;4.60;;;9.30;99.90;;;;;;5017792;28;20052;-88
2022/04/09 08:41:42;;;;;;;7.72;5.90;;;8.70;99.90;;;;;;5018561;28;20037;-88
2022/04/09 08:44:09;;;;;;;5.65;4.32;;;9.00;99.90;;;;;;5034045;28;20395;-85
2022/04/09 08:46:35;;;;;;;7.82;4.00;;;8.10;99.90;;;;;;5035364;28;20029;-85
2022/04/09 08:49:05;;;;;;;8.45;4.90;;;8.50;99.90;;;;;;5037710;28;20029;-85
2022/04/09 08:51:33;;;;;;;9.07;4.55;;;7.70;99.90;;;;;;5037051;28;20038;-85
2022/04/09 08:54:02;;;;;;;6.95;4.78;;;7.20;99.90;;;;;;5028817;28;20030;-83
2022/04/09 08:56:29;;;;;;;8.10;5.38;;;6.90;99.90;;;;;;5043559;28;20060;-83
2022/04/09 08:58:59;;;;;;;9.18;4.43;;;7.50;99.90;;;;;;5016360;28;20060;-84
2022/04/09 09:01:26;;;;;;;14.18;5.00;;;8.10;99.90;;;;;;5016828;28;20053;-83
2022/04/09 09:03:53;;;;;;;12.82;4.30;;;8.70;99.90;;;;;;5033265;28;20026;-83
2022/04/09 09:06:34;;;;;;;5.88;4.32;;;8.30;99.90;;;;;;5029723;28;20045;-83
2022/04/09 09:09:04;;;;;;;5.63;4.10;;;9.00;99.90;;;;;;5034692;28;20044;-83
2022/04/09 09:11:47;;;;;;;3.77;3.00;;;9.00;99.90;;;;;;5034880;28;20394;-85
2022/04/09 09:14:34;;;;;;;9.45;4.68;;;8.70;99.90;;;;;;5030303;28;20306;-83
2022/04/09 09:17:02;;;;;;;20.83;4.68;;;8.30;99.90;;;;;;5008955;28;20037;-83
2022/04/09 09:19:50;;;;;;;7.00;4.05;;;9.50;99.90;;;;;;5022903;28;20042;-84
2022/04/09 09:22:18;;;;;;;10.48;5.18;;;10.60;99.90;;;;;;5028775;28;20041;-84
2022/04/09 09:25:02;;;;;;;7.68;4.32;;;10.30;99.90;;;;;;5031016;28;20045;-85
2022/04/09 09:27:28;;;;;;;4.35;3.50;;;9.70;99.90;;;;;;5032386;28;20045;-84
2022/04/09 09:29:55;;;;;;;9.60;3.95;;;9.30;99.90;;;;;;5030602;28;20033;-87
2022/04/09 09:32:26;;;;;;;6.25;4.05;;;9.60;99.90;;;;;;5013188;28;20044;-87
2022/04/09 09:34:56;;;;;;;9.05;4.28;;;10.30;99.90;;;;;;5016599;28;20049;-84
2022/04/09 09:37:24;;;;;;;8.23;3.85;;;9.90;99.90;;;;;;5031496;28;20045;-86
2022/04/09 09:39:51;;;;;;;5.53;3.38;;;9.60;99.90;;;;;;5034333;28;20057;-84
2022/04/09 09:42:22;;;;;;;5.00;3.33;;;9.70;99.90;;;;;;5013196;28;20038;-84
2022/04/09 09:44:49;;;;;;;6.50;3.65;;;9.80;99.90;;;;;;5030223;28;20048;-84
2022/04/09 09:47:17;;;;;;;10.50;4.20;;;9.60;99.90;;;;;;5029781;28;20034;-84
2022/04/09 09:49:58;;;;;;;13.43;4.00;;;10.10;99.90;;;;;;5011149;28;20025;-84
2022/04/09 09:52:36;;;;;;;5.13;3.10;;;10.00;99.90;;;;;;5032895;28;20038;-81
2022/04/09 09:55:10;;;;;;;7.90;3.20;;;9.50;99.90;;;;;;5030909;28;20052;-80
2022/04/09 09:57:41;;;;;;;7.43;3.40;;;9.00;99.90;;;;;;5032564;28;20033;-80
2022/04/09 10:00:13;;;;;;;3.97;3.28;;;9.30;96.40;;;;;;5030674;28;20038;-81
2022/04/09 10:02:40;;;;;;;5.07;3.08;;;8.80;95.50;;;;;;5014636;28;20041;-79
2022/04/09 10:05:07;;;;;;;5.55;3.63;;;9.00;94.60;;;;;;5030818;28;20041;-78
2022/04/09 10:07:34;;;;;;;9.13;3.63;;;8.20;95.90;;;;;;5034337;28;20037;-80
2022/04/09 10:10:02;;;;;;;6.63;4.03;;;7.90;95.50;;;;;;5033607;28;20040;-80
2022/04/09 10:12:28;;;;;;;8.10;4.15;;;8.20;97.80;;;;;;5032783;28;20045;-80
2022/04/09 10:14:56;;;;;;;9.13;4.40;;;8.20;95.00;;;;;;5033675;28;20041;-83
2022/04/09 10:17:24;;;;;;;3.75;3.28;;;7.90;95.40;;;;;;5015493;28;20034;-81
2022/04/09 10:19:55;;;;;;;7.07;3.75;;;7.90;95.70;;;;;;5031932;28;20042;-82
2022/04/09 10:22:24;;;;;;;5.60;2.97;;;7.80;96.00;;;;;;5006663;28;20038;-81
2022/04/09 10:24:51;;;;;;;7.32;3.42;;;7.90;94.10;;;;;;5004590;28;20038;-80
2022/04/09 10:27:34;;;;;;;4.38;3.40;;;7.80;93.90;;;;;;5037813;28;20048;-81
2022/04/09 10:30:02;;;;;;;5.25;3.40;;;7.70;95.90;;;;;;5018711;28;20037;-80
2022/04/09 10:32:47;;;;;;;5.22;3.53;;;7.70;93.90;;;;;;5037784;28;20045;-79
2022/04/09 10:35:23;;;;;;;8.85;4.78;;;7.80;94.20;;;;;;5028305;28;20041;-79
2022/04/09 10:38:15;;;;;;;12.27;3.72;;;8.20;95.20;;;;;;5012096;28;20060;-80
2022/04/09 10:40:50;;;;;;;8.48;4.10;;;8.20;95.30;;;;;;5024475;28;20030;-79
2022/04/09 10:43:25;;;;;;;6.30;3.35;;;8.60;94.40;;;;;;5014506;28;20426;-81
2022/04/09 10:46:17;;;;;;;5.43;3.40;;;8.50;93.50;;;;;;5018921;28;20048;-81
2022/04/09 10:48:44;;;;;;;5.68;3.85;;;8.50;93.10;;;;;;5015538;28;20048;-82
2022/04/09 10:51:12;;;;;;;5.57;3.58;;;8.50;92.80;;;;;;5033256;28;20033;-83
2022/04/09 10:53:43;;;;;;;4.20;2.78;;;8.60;92.70;;;;;;5014679;28;20041;-83
2022/04/09 10:56:21;;;;;;;15.88;3.35;;;9.10;93.80;;;;;;5009001;28;20048;-82
2022/04/09 10:59:08;;;;;;;6.07;2.70;;;9.10;93.40;;;;;;5028097;28;20041;-80
2022/04/09 11:01:46;;;;;;;4.97;3.13;;;8.40;91.90;;;;;;5031102;28;20038;-78
2022/04/09 11:04:36;;;;;;;5.82;2.63;;;8.70;92.20;;;;;;5030973;28;20437;-81
2022/04/09 11:07:23;;;;;;;5.35;3.38;;;8.40;92.00;;;;;;5027613;28;20034;-80
2022/04/09 11:09:56;;;;;;;6.50;2.70;;;8.40;93.40;;;;;;5031293;28;20040;-76
2022/04/09 11:12:38;;;;;;;9.90;3.30;;;8.40;91.70;;;;;;5028798;28;20037;-76
2022/04/09 11:15:12;;;;;;;6.10;2.85;;;8.20;92.50;;;;;;5032823;28;20037;-79
2022/04/09 11:17:39;;;;;;;2.38;2.17;;;8.10;93.60;;;;;;5026968;28;20052;-77
2022/04/09 11:20:10;;;;;;;12.45;3.28;;;8.00;93.30;;;;;;5010315;28;20045;-77
2022/04/09 11:22:38;;;;;;;9.35;4.70;;;7.90;93.10;;;;;;5024272;28;20062;-78
2022/04/09 11:25:07;;;;;;;31.27;19.00;;;7.90;93.10;;;;;;5003493;28;20046;-78
2022/04/09 11:27:34;;;;;;;20.00;14.23;;;7.90;92.20;;;;;;5032100;28;20050;-79
2022/04/09 11:30:01;;;;;;;11.30;7.82;;;8.10;91.30;;;;;;5031327;28;20037;-79
2022/04/09 11:32:28;;;;;;;8.00;4.03;;;8.00;89.40;;;;;;5030849;28;20493;-79
2022/04/09 11:34:59;;;;;;;5.32;2.97;;;7.90;89.80;;;;;;5013784;28;20041;-79
2022/04/09 11:37:29;;;;;;;4.38;2.08;;;7.80;91.00;;;;;;5015143;28;20060;-79
2022/04/09 11:40:03;;;;;;;5.10;2.38;;;8.10;91.60;;;;;;5037339;28;20033;-79
2022/04/09 11:42:29;;;;;;;3.90;2.53;;;8.20;91.00;;;;;;5012346;28;20036;-79
2022/04/09 11:44:55;;;;;;;6.93;2.70;;;8.10;90.10;;;;;;5014454;28;20044;-80
2022/04/09 11:47:24;;;;;;;3.40;2.35;;;8.30;90.00;;;;;;5027681;28;20041;-79
2022/04/09 11:49:52;;;;;;;6.20;2.65;;;8.70;88.70;;;;;;5023752;28;20037;-84
2022/04/09 11:52:27;;;;;;;6.22;2.40;;;8.90;87.90;;;;;;5010229;28;20401;-82
2022/04/09 11:54:54;;;;;;;9.63;2.22;;;8.60;88.10;;;;;;5009661;28;20041;-82
2022/04/09 11:57:22;;;;;;;5.13;2.58;;;8.20;88.10;;;;;;5023339;28;20374;-81
2022/04/09 11:59:52;;;;;;;35.42;18.80;;;8.20;89.20;;;;;;5009254;28;20037;-81
2022/04/09 12:02:22;;;;;;;3.80;2.63;;;8.30;90.60;;;;;;5024792;28;20026;-84
2022/04/09 12:04:49;;;;;;;5.38;2.90;;;8.30;88.70;;;;;;5014753;28;20044;-82
2022/04/09 12:07:16;;;;;;;9.38;2.65;;;8.20;89.00;;;;;;5014698;28;20045;-85
2022/04/09 12:09:43;;;;;;;4.75;3.25;;;8.40;91.50;;;;;;5024268;28;20037;-86
2022/04/09 12:12:09;;;;;;;10.25;3.25;;;8.70;90.00;;;;;;5031638;28;20471;-85
2022/04/09 12:14:36;;;;;;;7.10;2.75;;;9.00;90.40;;;;;;5036735;28;20029;-85
2022/04/09 12:17:13;;;;;;;5.85;2.20;;;9.10;85.60;;;;;;5020702;28;20497;-86
2022/04/09 12:19:43;;;;;;;3.78;2.00;;;9.00;83.70;;;;;;4989338;28;20041;-87
2022/04/09 12:22:21;;;;;;;5.07;2.50;;;8.90;79.50;;;;;;5025011;28;20038;-86
2022/04/09 12:24:53;;;;;;;3.40;2.17;;;8.90;81.50;;;;;;5017169;28;20049;-85
2022/04/09 12:27:42;;;;;;;8.05;1.30;;;8.80;81.70;;;;;;5001294;28;20037;-84
2022/04/09 12:30:09;;;;;;;7.55;1.52;;;9.10;83.50;;;;;;5015300;28;20042;-85
2022/04/09 12:32:35;;;;;;;3.83;1.77;;;8.90;81.90;;;;;;5024068;28;20041;-86
2022/04/09 12:35:08;;;;;;;3.40;2.38;;;8.70;83.90;;;;;;5036423;28;20029;-89
2022/04/09 12:37:48;;;;;;;4.47;2.65;;;8.70;91.40;;;;;;5041592;28;20033;-80
2022/04/09 12:40:23;;;;;;;3.65;3.10;;;8.90;92.20;;;;;;5029857;28;20395;-82
2022/04/09 12:42:50;;;;;;;5.93;3.30;;;8.90;94.00;;;;;;5036607;28;20041;-82
2022/04/09 12:45:21;;;;;;;6.20;3.08;;;9.10;93.40;;;;;;5034758;28;20037;-81
2022/04/09 12:48:01;;;;;;;5.75;2.85;;;9.00;93.90;;;;;;5033072;28;20030;-81
2022/04/09 12:50:32;;;;;;;3.00;2.30;;;9.10;93.90;;;;;;5018046;28;20506;-84
2022/04/09 12:53:00;;;;;;;5.18;2.20;;;9.10;92.30;;;;;;5033744;28;20356;-81
2022/04/09 12:55:28;;;;;;;5.30;2.53;;;9.00;91.00;;;;;;5015954;28;20056;-82
2022/04/09 12:57:54;;;;;;;4.72;2.20;;;9.00;92.20;;;;;;5028631;28;20033;-81
2022/04/09 13:00:23;;;;;;;9.70;2.28;;;9.20;91.30;;;;;;5017501;28;20038;-79